createdAt,value
2022-09-05T00:03:14.538Z,17.76
2022-09-05T00:07:32.971Z,17.61
2022-09-05T00:11:50.837Z,17.55
2022-09-05T00:16:06.702Z,17.58
2022-09-05T00:24:37.782Z,17.69
2022-09-05T00:25:14.314Z,17.46
2022-09-05T00:30:53.894Z,17.67
2022-09-05T00:34:19.021Z,17.46
2022-09-05T00:38:27.508Z,17.16
2022-09-05T00:42:35.779Z,17.24
2022-09-05T00:46:44.624Z,17.17
2022-09-05T00:51:02.051Z,17.02
2022-09-05T00:55:19.636Z,16.92
2022-09-05T00:59:58.917Z,17.00
2022-09-05T01:04:20.601Z,17.11
2022-09-05T01:08:42.198Z,17.28
2022-09-05T01:12:57.940Z,17.18
2022-09-05T01:17:19.655Z,16.97
2022-09-05T01:21:38.629Z,16.95
2022-09-05T01:25:55.257Z,16.84
2022-09-05T01:30:08.314Z,16.91
2022-09-05T01:34:32.063Z,16.81
2022-09-05T01:38:51.729Z,16.77
2022-09-05T01:43:23.573Z,16.78
2022-09-05T01:47:41.604Z,16.78
2022-09-05T01:52:07.969Z,16.72
2022-09-05T01:56:46.873Z,16.70
2022-09-05T02:01:25.100Z,16.49
2022-09-05T02:05:48.486Z,16.38
2022-09-05T02:10:26.675Z,16.54
2022-09-05T02:14:39.127Z,16.69
2022-09-05T02:18:55.566Z,16.59
2022-09-05T02:23:24.626Z,16.53
2022-09-05T02:28:04.377Z,16.44
2022-09-05T02:32:04.299Z,16.51
2022-09-05T02:36:14.938Z,16.51
2022-09-05T02:45:14.497Z,16.43
2022-09-05T02:45:25.712Z,16.46
2022-09-05T02:52:16.804Z,16.33
2022-09-05T02:57:37.227Z,16.32
2022-09-05T02:59:09.060Z,16.26
2022-09-05T03:03:30.123Z,16.25
2022-09-05T03:08:01.921Z,16.11
2022-09-05T03:12:35.248Z,16.15
2022-09-05T03:17:27.196Z,16.24
2022-09-05T03:21:57.520Z,16.22
2022-09-05T03:26:37.951Z,16.19
2022-09-05T03:31:01.183Z,16.21
2022-09-05T03:35:44.919Z,16.17
2022-09-05T03:40:16.807Z,16.11
2022-09-05T03:44:33.706Z,16.09
2022-09-05T03:48:53.839Z,16.01
2022-09-05T03:57:25.423Z,15.95
2022-09-05T03:58:16.772Z,15.74
2022-09-05T04:08:10.846Z,15.75
2022-09-05T04:08:28.021Z,15.60
2022-09-05T04:11:30.741Z,15.61
2022-09-05T04:15:41.802Z,15.55
2022-09-05T04:19:51.659Z,15.50
2022-09-05T04:24:07.284Z,15.39
2022-09-05T04:28:21.398Z,15.42
2022-09-05T04:32:36.007Z,15.21
2022-09-05T04:36:43.221Z,15.09
2022-09-05T04:41:00.419Z,14.92
2022-09-05T04:45:17.462Z,14.80
2022-09-05T04:49:31.424Z,14.66
2022-09-05T04:54:07.315Z,14.64
2022-09-05T04:58:22.709Z,14.91
2022-09-05T05:06:19.942Z,14.83
2022-09-05T05:07:07.730Z,14.61
2022-09-05T05:18:03.037Z,14.52
2022-09-05T05:18:08.955Z,14.53
2022-09-05T05:20:42.129Z,14.96
2022-09-05T05:24:54.092Z,15.04
2022-09-05T05:29:04.133Z,15.28
2022-09-05T05:33:25.727Z,15.38
2022-09-05T05:37:34.657Z,15.45
2022-09-05T05:41:43.606Z,15.64
2022-09-05T05:45:47.115Z,15.81
2022-09-05T05:50:02.179Z,15.97
2022-09-05T05:54:18.892Z,16.10
2022-09-05T05:58:39.723Z,16.27
2022-09-05T06:03:26.594Z,16.47
2022-09-05T06:08:02.541Z,16.71
2022-09-05T06:14:57.252Z,16.93
2022-09-05T06:17:46.302Z,17.25
2022-09-05T06:22:35.569Z,17.61
2022-09-05T06:27:21.178Z,17.88
2022-09-05T06:31:40.544Z,18.07
2022-09-05T06:36:01.200Z,18.34
2022-09-05T06:40:17.106Z,18.67
2022-09-05T06:44:37.347Z,18.84
2022-09-05T06:49:28.501Z,19.04
2022-09-05T06:53:38.562Z,19.27
2022-09-05T06:58:06.256Z,19.50
2022-09-05T07:02:25.728Z,19.82
2022-09-05T07:07:01.513Z,20.00
2022-09-05T07:11:15.714Z,20.20
2022-09-05T07:15:39.433Z,20.48
2022-09-05T07:19:50.884Z,20.70
2022-09-05T07:24:09.038Z,21.03
2022-09-05T07:28:26.591Z,21.19
2022-09-05T07:32:35.706Z,21.47
2022-09-05T07:36:43.998Z,21.85
2022-09-05T07:40:53.210Z,22.07
2022-09-05T07:45:04.664Z,22.37
2022-09-05T07:49:12.414Z,23.13
2022-09-05T07:57:08.679Z,24.24
2022-09-05T07:57:51.964Z,25.01
2022-09-05T08:01:58.079Z,25.21
2022-09-05T08:06:06.710Z,25.61
2022-09-05T08:10:18.398Z,26.68
2022-09-05T08:14:43.663Z,25.96
2022-09-05T08:18:53.869Z,25.60
2022-09-05T08:23:05.207Z,27.05
2022-09-05T08:27:16.399Z,27.26
2022-09-05T08:31:24.438Z,27.28
2022-09-05T08:35:35.131Z,27.78
2022-09-05T08:39:38.366Z,26.75
2022-09-05T08:46:35.714Z,27.86
2022-09-05T08:48:21.886Z,28.47
2022-09-05T08:52:34.883Z,29.20
2022-09-05T08:56:45.327Z,28.04
2022-09-05T09:01:00.166Z,27.68
2022-09-05T09:05:14.157Z,28.75
2022-09-05T09:09:30.264Z,29.29
2022-09-05T09:13:42.183Z,30.36
2022-09-05T09:17:46.981Z,31.55
2022-09-05T09:22:04.649Z,32.36
2022-09-05T09:26:15.898Z,31.10
2022-09-05T09:30:20.786Z,32.12
2022-09-05T09:34:39.643Z,32.18
2022-09-05T09:39:38.028Z,30.97
2022-09-05T09:44:15.356Z,31.34
2022-09-05T09:49:01.395Z,32.34
2022-09-05T09:53:41.494Z,31.47
2022-09-05T09:58:14.729Z,32.15
2022-09-05T10:05:33.911Z,33.84
2022-09-05T10:10:46.166Z,33.38
2022-09-05T10:12:30.475Z,32.40
2022-09-05T10:16:57.481Z,30.66
2022-09-05T10:21:25.822Z,29.89
2022-09-05T10:25:46.025Z,29.36
2022-09-05T10:30:07.254Z,30.90
2022-09-05T10:35:17.979Z,32.47
2022-09-05T10:38:46.591Z,32.84
2022-09-05T10:42:59.785Z,33.05
2022-09-05T10:47:15.543Z,32.36
2022-09-05T10:51:27.828Z,33.06
2022-09-05T10:55:39.894Z,33.83
2022-09-05T11:02:24.439Z,32.38
2022-09-05T11:04:50.950Z,33.84
2022-09-05T11:09:03.132Z,33.78
2022-09-05T11:13:16.414Z,34.14
2022-09-05T11:17:35.264Z,34.21
2022-09-05T11:22:01.774Z,35.36
2022-09-05T11:26:25.200Z,34.99
2022-09-05T11:30:39.637Z,34.23
2022-09-05T11:39:57.874Z,34.89
2022-09-05T11:40:30.159Z,32.51
2022-09-05T11:44:54.132Z,33.58
2022-09-05T11:49:32.299Z,36.18
2022-09-05T11:54:08.884Z,35.49
2022-09-05T11:58:44.493Z,35.89
2022-09-05T15:30:02.444Z,30.77
2022-09-05T15:34:23.699Z,30.38
2022-09-05T15:38:30.863Z,30.43
2022-09-05T15:42:38.581Z,30.17
2022-09-05T15:46:47.530Z,30.52
2022-09-05T15:50:54.750Z,30.32
2022-09-05T15:55:05.489Z,30.58
2022-09-05T15:59:11.898Z,30.15
2022-09-05T16:04:47.778Z,30.21
2022-09-05T16:10:34.971Z,29.88
2022-09-05T16:12:35.773Z,29.53
2022-09-05T16:23:18.192Z,29.41
2022-09-05T16:23:30.072Z,29.09
2022-09-05T16:25:42.141Z,29.12
2022-09-05T16:29:48.889Z,29.01
2022-09-05T16:33:52.934Z,28.94
2022-09-05T16:38:08.223Z,28.78
2022-09-05T16:42:17.582Z,28.81
2022-09-05T16:46:24.368Z,28.91
2022-09-05T16:50:37.250Z,28.89
2022-09-05T16:54:50.511Z,28.75
2022-09-05T16:58:56.456Z,28.61
2022-09-05T17:03:08.749Z,28.63
2022-09-05T17:07:18.977Z,28.56
2022-09-05T17:11:29.570Z,28.56
2022-09-05T17:15:37.671Z,28.61
2022-09-05T17:20:06.430Z,28.26
2022-09-05T17:29:15.904Z,28.24
2022-09-05T17:29:38.124Z,28.04
2022-09-05T17:33:40.296Z,27.80
2022-09-05T17:38:21.991Z,27.62
2022-09-05T17:42:43.240Z,27.43
2022-09-05T17:47:00.629Z,26.78
2022-09-05T17:51:03.973Z,26.65
2022-09-05T17:55:15.545Z,26.42
2022-09-05T17:59:28.918Z,26.31
2022-09-05T18:04:17.340Z,25.93
2022-09-05T18:08:53.719Z,25.81
2022-09-05T18:13:31.971Z,25.67
2022-09-05T18:18:10.790Z,25.41
2022-09-05T18:22:34.927Z,25.12
2022-09-05T18:26:41.354Z,24.94
2022-09-05T18:30:45.287Z,24.72
2022-09-05T18:35:37.117Z,24.52
2022-09-05T18:39:43.349Z,24.39
2022-09-05T18:44:13.928Z,24.24
2022-09-05T18:48:28.342Z,23.99
2022-09-05T18:52:38.674Z,23.89
2022-09-05T18:57:19.943Z,23.82
2022-09-05T19:01:24.911Z,23.78
2022-09-05T19:05:41.832Z,23.70
2022-09-05T19:10:03.635Z,23.67
2022-09-05T19:14:46.431Z,23.60
2022-09-05T19:19:08.871Z,23.58
2022-09-05T19:23:15.087Z,23.48
2022-09-05T19:29:51.597Z,23.52
2022-09-05T19:37:07.567Z,23.24
2022-09-05T19:37:07.769Z,23.42
2022-09-05T19:47:23.548Z,23.11
2022-09-05T19:47:51.474Z,23.15
2022-09-05T19:49:37.656Z,23.17
2022-09-05T19:53:47.630Z,23.23
2022-09-05T19:58:19.522Z,23.20
2022-09-05T20:02:25.865Z,23.10
2022-09-05T20:06:31.351Z,23.21
2022-09-05T20:10:36.200Z,22.91
2022-09-05T20:14:43.038Z,22.75
2022-09-05T20:18:48.121Z,22.59
2022-09-05T20:22:57.708Z,22.62
2022-09-05T20:27:01.736Z,22.44
2022-09-05T20:31:09.397Z,22.39
2022-09-05T20:38:16.436Z,22.29
2022-09-05T20:43:21.346Z,22.11
2022-09-05T20:44:22.598Z,21.94
2022-09-05T20:54:06.108Z,21.89
2022-09-05T20:54:12.675Z,21.83
2022-09-05T20:57:23.031Z,21.90
2022-09-05T21:01:27.660Z,21.84
2022-09-05T21:05:33.695Z,21.99
2022-09-05T21:09:52.578Z,21.88
2022-09-05T21:14:00.531Z,21.65
2022-09-05T21:18:05.163Z,21.52
2022-09-05T21:22:24.647Z,21.54
2022-09-05T21:26:29.472Z,21.38
2022-09-05T21:30:36.941Z,21.34
2022-09-05T21:34:47.485Z,21.27
2022-09-05T21:38:55.107Z,21.26
2022-09-05T21:47:30.900Z,21.23
2022-09-05T21:47:35.260Z,21.23
2022-09-05T21:51:50.640Z,21.27
2022-09-05T21:59:26.347Z,21.20
2022-09-05T22:00:17.811Z,21.08
2022-09-05T22:04:22.875Z,21.08
2022-09-05T22:08:26.937Z,21.38
2022-09-05T22:12:36.001Z,21.51
2022-09-05T22:16:47.458Z,21.55
2022-09-05T22:21:32.001Z,21.59
2022-09-05T22:25:27.686Z,21.57
2022-09-05T22:33:51.062Z,21.52
2022-09-05T22:38:01.812Z,21.65
2022-09-05T22:42:10.270Z,21.48
2022-09-05T22:46:14.411Z,21.42
2022-09-05T22:50:19.393Z,20.94
2022-09-05T22:54:23.842Z,20.88
2022-09-05T22:58:28.101Z,20.77
2022-09-05T23:02:31.965Z,20.94
2022-09-05T23:06:37.100Z,21.37
2022-09-05T23:10:49.522Z,21.69
2022-09-05T23:14:52.913Z,21.70
2022-09-05T23:18:59.728Z,21.63
2022-09-05T23:23:10.366Z,21.55
2022-09-05T23:27:13.897Z,21.63
2022-09-05T23:31:17.353Z,21.60
2022-09-05T23:35:21.151Z,20.93
2022-09-05T23:39:26.427Z,20.93
2022-09-05T23:43:30.393Z,20.92
2022-09-05T23:47:36.218Z,20.89
2022-09-05T23:51:44.179Z,20.88
2022-09-05T23:55:49.039Z,20.85
